sensor_id;sensor_type;location;lat;lon;timestamp;temperature;humidity
47813;DHT22;34221;45.296;9.516;2023-08-17T00:00:05;26.70;44.80
47813;DHT22;34221;45.296;9.516;2023-08-17T00:00:24;26.80;44.80
47813;DHT22;34221;45.296;9.516;2023-08-17T00:00:38;26.80;44.90
47813;DHT22;34221;45.296;9.516;2023-08-17T00:00:53;26.80;44.90
47813;DHT22;34221;45.296;9.516;2023-08-17T00:01:08;26.80;44.90
47813;DHT22;34221;45.296;9.516;2023-08-17T00:01:23;26.80;44.90
47813;DHT22;34221;45.296;9.516;2023-08-17T00:01:38;26.80;44.90
47813;DHT22;34221;45.296;9.516;2023-08-17T00:01:52;26.70;44.90
47813;DHT22;34221;45.296;9.516;2023-08-17T00:02:07;26.70;44.80
47813;DHT22;34221;45.296;9.516;2023-08-17T00:02:22;26.70;44.80
47813;DHT22;34221;45.296;9.516;2023-08-17T00:02:37;26.70;44.90
47813;DHT22;34221;45.296;9.516;2023-08-17T00:02:51;26.80;45.00
47813;DHT22;34221;45.296;9.516;2023-08-17T00:03:06;26.70;44.80
47813;DHT22;34221;45.296;9.516;2023-08-17T00:03:21;26.80;45.20
47813;DHT22;34221;45.296;9.516;2023-08-17T00:03:36;26.80;44.90
47813;DHT22;34221;45.296;9.516;2023-08-17T00:03:50;26.70;44.90
47813;DHT22;34221;45.296;9.516;2023-08-17T00:04:05;26.70;44.80
47813;DHT22;34221;45.296;9.516;2023-08-17T00:04:20;26.70;45.00
47813;DHT22;34221;45.296;9.516;2023-08-17T00:04:35;26.70;44.80
47813;DHT22;34221;45.296;9.516;2023-08-17T00:04:49;26.80;45.00
47813;DHT22;34221;45.296;9.516;2023-08-17T00:05:04;26.80;44.90
47813;DHT22;34221;45.296;9.516;2023-08-17T00:05:21;26.80;45.10
47813;DHT22;34221;45.296;9.516;2023-08-17T00:05:35;26.80;45.10
47813;DHT22;34221;45.296;9.516;2023-08-17T00:05:50;26.80;44.90
47813;DHT22;34221;45.296;9.516;2023-08-17T00:06:05;26.80;44.90
47813;DHT22;34221;45.296;9.516;2023-08-17T00:06:20;26.70;44.90
47813;DHT22;34221;45.296;9.516;2023-08-17T00:06:34;26.70;44.90
47813;DHT22;34221;45.296;9.516;2023-08-17T00:06:49;26.70;44.90
47813;DHT22;34221;45.296;9.516;2023-08-17T00:07:04;26.80;45.20
47813;DHT22;34221;45.296;9.516;2023-08-17T00:07:19;26.80;45.10
47813;DHT22;34221;45.296;9.516;2023-08-17T00:07:34;26.70;45.00
47813;DHT22;34221;45.296;9.516;2023-08-17T00:07:49;26.80;45.20
47813;DHT22;34221;45.296;9.516;2023-08-17T00:08:04;26.70;45.10
47813;DHT22;34221;45.296;9.516;2023-08-17T00:08:19;26.70;45.10
47813;DHT22;34221;45.296;9.516;2023-08-17T00:08:34;26.80;45.10
47813;DHT22;34221;45.296;9.516;2023-08-17T00:08:48;26.70;45.00
47813;DHT22;34221;45.296;9.516;2023-08-17T00:09:03;26.80;45.10
47813;DHT22;34221;45.296;9.516;2023-08-17T00:09:18;26.70;45.00
47813;DHT22;34221;45.296;9.516;2023-08-17T00:09:33;26.70;45.00
47813;DHT22;34221;45.296;9.516;2023-08-17T00:09:48;26.70;45.10
47813;DHT22;34221;45.296;9.516;2023-08-17T00:10:03;26.80;45.20
47813;DHT22;34221;45.296;9.516;2023-08-17T00:10:18;26.70;45.10
47813;DHT22;34221;45.296;9.516;2023-08-17T00:10:32;26.80;45.20
47813;DHT22;34221;45.296;9.516;2023-08-17T00:10:47;26.70;45.20
47813;DHT22;34221;45.296;9.516;2023-08-17T00:11:02;26.70;45.10
47813;DHT22;34221;45.296;9.516;2023-08-17T00:11:17;26.70;45.20
47813;DHT22;34221;45.296;9.516;2023-08-17T00:11:33;26.70;45.10
47813;DHT22;34221;45.296;9.516;2023-08-17T00:12:06;26.70;45.20
47813;DHT22;34221;45.296;9.516;2023-08-17T00:12:21;26.80;45.30
47813;DHT22;34221;45.296;9.516;2023-08-17T00:12:36;26.70;45.30
47813;DHT22;34221;45.296;9.516;2023-08-17T00:12:50;26.70;45.20
47813;DHT22;34221;45.296;9.516;2023-08-17T00:13:06;26.70;45.20
47813;DHT22;34221;45.296;9.516;2023-08-17T00:13:20;26.70;45.30
47813;DHT22;34221;45.296;9.516;2023-08-17T00:13:35;26.70;45.30
47813;DHT22;34221;45.296;9.516;2023-08-17T00:13:50;26.70;45.30
47813;DHT22;34221;45.296;9.516;2023-08-17T00:14:05;26.70;45.40
47813;DHT22;34221;45.296;9.516;2023-08-17T00:14:20;26.70;45.30
47813;DHT22;34221;45.296;9.516;2023-08-17T00:14:35;26.70;45.40
47813;DHT22;34221;45.296;9.516;2023-08-17T00:14:51;26.70;45.30
47813;DHT22;34221;45.296;9.516;2023-08-17T00:15:06;26.70;46.00
47813;DHT22;34221;45.296;9.516;2023-08-17T00:15:21;26.70;45.50
47813;DHT22;34221;45.296;9.516;2023-08-17T00:15:35;26.70;45.50
47813;DHT22;34221;45.296;9.516;2023-08-17T00:15:50;26.70;45.50
47813;DHT22;34221;45.296;9.516;2023-08-17T00:16:05;26.70;45.60
47813;DHT22;34221;45.296;9.516;2023-08-17T00:16:20;26.70;45.50
47813;DHT22;34221;45.296;9.516;2023-08-17T00:16:35;26.70;45.60
47813;DHT22;34221;45.296;9.516;2023-08-17T00:16:50;26.70;45.50
47813;DHT22;34221;45.296;9.516;2023-08-17T00:17:05;26.60;45.60
47813;DHT22;34221;45.296;9.516;2023-08-17T00:17:19;26.60;45.50
47813;DHT22;34221;45.296;9.516;2023-08-17T00:17:34;26.60;45.50
47813;DHT22;34221;45.296;9.516;2023-08-17T00:17:49;26.70;45.60
47813;DHT22;34221;45.296;9.516;2023-08-17T00:18:04;26.60;45.50
47813;DHT22;34221;45.296;9.516;2023-08-17T00:18:18;26.60;45.50
47813;DHT22;34221;45.296;9.516;2023-08-17T00:18:34;26.70;45.60
47813;DHT22;34221;45.296;9.516;2023-08-17T00:18:48;26.70;45.60
47813;DHT22;34221;45.296;9.516;2023-08-17T00:19:03;26.70;45.60
47813;DHT22;34221;45.296;9.516;2023-08-17T00:19:18;26.70;45.60
47813;DHT22;34221;45.296;9.516;2023-08-17T00:19:33;26.70;45.60
47813;DHT22;34221;45.296;9.516;2023-08-17T00:19:48;26.70;45.60
47813;DHT22;34221;45.296;9.516;2023-08-17T00:20:03;26.60;45.70
47813;DHT22;34221;45.296;9.516;2023-08-17T00:20:19;26.70;45.80
47813;DHT22;34221;45.296;9.516;2023-08-17T00:20:34;26.70;45.70
47813;DHT22;34221;45.296;9.516;2023-08-17T00:20:49;26.60;45.60
47813;DHT22;34221;45.296;9.516;2023-08-17T00:21:04;26.60;45.60
47813;DHT22;34221;45.296;9.516;2023-08-17T00:21:18;26.70;45.70
47813;DHT22;34221;45.296;9.516;2023-08-17T00:21:33;26.60;45.60
47813;DHT22;34221;45.296;9.516;2023-08-17T00:21:48;26.70;45.70
47813;DHT22;34221;45.296;9.516;2023-08-17T00:22:03;26.60;45.60
47813;DHT22;34221;45.296;9.516;2023-08-17T00:22:18;26.60;45.60
47813;DHT22;34221;45.296;9.516;2023-08-17T00:22:33;26.70;45.70
47813;DHT22;34221;45.296;9.516;2023-08-17T00:22:47;26.60;45.60
47813;DHT22;34221;45.296;9.516;2023-08-17T00:23:02;26.60;45.60
47813;DHT22;34221;45.296;9.516;2023-08-17T00:23:17;26.70;45.90
47813;DHT22;34221;45.296;9.516;2023-08-17T00:23:32;26.60;45.80
47813;DHT22;34221;45.296;9.516;2023-08-17T00:23:47;26.70;45.80
47813;DHT22;34221;45.296;9.516;2023-08-17T00:24:02;26.60;45.80
47813;DHT22;34221;45.296;9.516;2023-08-17T00:24:16;26.70;46.10
47813;DHT22;34221;45.296;9.516;2023-08-17T00:24:31;26.70;45.70
47813;DHT22;34221;45.296;9.516;2023-08-17T00:24:46;26.70;45.70
47813;DHT22;34221;45.296;9.516;2023-08-17T00:25:01;26.70;45.70
47813;DHT22;34221;45.296;9.516;2023-08-17T00:25:17;26.70;45.70
47813;DHT22;34221;45.296;9.516;2023-08-17T00:25:32;26.70;45.60
47813;DHT22;34221;45.296;9.516;2023-08-17T00:25:47;26.70;45.60
47813;DHT22;34221;45.296;9.516;2023-08-17T00:26:02;26.60;45.60
47813;DHT22;34221;45.296;9.516;2023-08-17T00:26:17;26.70;45.70
47813;DHT22;34221;45.296;9.516;2023-08-17T00:26:32;26.60;45.60
47813;DHT22;34221;45.296;9.516;2023-08-17T00:26:46;26.60;45.60
47813;DHT22;34221;45.296;9.516;2023-08-17T00:27:01;26.60;45.60
47813;DHT22;34221;45.296;9.516;2023-08-17T00:27:17;26.60;45.60
47813;DHT22;34221;45.296;9.516;2023-08-17T00:27:32;26.60;45.70
47813;DHT22;34221;45.296;9.516;2023-08-17T00:27:47;26.60;45.60
47813;DHT22;34221;45.296;9.516;2023-08-17T00:28:05;26.60;45.70
47813;DHT22;34221;45.296;9.516;2023-08-17T00:28:20;26.60;45.70
47813;DHT22;34221;45.296;9.516;2023-08-17T00:28:36;26.60;45.70
47813;DHT22;34221;45.296;9.516;2023-08-17T00:28:50;26.60;45.70
47813;DHT22;34221;45.296;9.516;2023-08-17T00:29:05;26.60;45.80
47813;DHT22;34221;45.296;9.516;2023-08-17T00:29:20;26.60;46.30
47813;DHT22;34221;45.296;9.516;2023-08-17T00:29:35;26.60;45.80
47813;DHT22;34221;45.296;9.516;2023-08-17T00:29:50;26.60;45.80
47813;DHT22;34221;45.296;9.516;2023-08-17T00:30:05;26.60;45.80
47813;DHT22;34221;45.296;9.516;2023-08-17T00:30:20;26.60;45.80
47813;DHT22;34221;45.296;9.516;2023-08-17T00:30:35;26.60;45.80
47813;DHT22;34221;45.296;9.516;2023-08-17T00:30:52;26.60;45.80
47813;DHT22;34221;45.296;9.516;2023-08-17T00:31:07;26.60;46.40
47813;DHT22;34221;45.296;9.516;2023-08-17T00:31:22;26.60;45.80
47813;DHT22;34221;45.296;9.516;2023-08-17T00:31:37;26.60;45.90
47813;DHT22;34221;45.296;9.516;2023-08-17T00:31:52;26.60;46.10
47813;DHT22;34221;45.296;9.516;2023-08-17T00:32:25;26.50;46.10
47813;DHT22;34221;45.296;9.516;2023-08-17T00:32:40;26.40;46.30
47813;DHT22;34221;45.296;9.516;2023-08-17T00:32:55;26.30;46.50
47813;DHT22;34221;45.296;9.516;2023-08-17T00:33:09;26.30;46.80
47813;DHT22;34221;45.296;9.516;2023-08-17T00:33:25;26.30;46.80
47813;DHT22;34221;45.296;9.516;2023-08-17T00:33:39;26.30;47.00
47813;DHT22;34221;45.296;9.516;2023-08-17T00:33:56;26.30;47.10
47813;DHT22;34221;45.296;9.516;2023-08-17T00:34:28;26.20;47.30
47813;DHT22;34221;45.296;9.516;2023-08-17T00:34:43;26.20;47.20
47813;DHT22;34221;45.296;9.516;2023-08-17T00:34:57;26.20;47.30
47813;DHT22;34221;45.296;9.516;2023-08-17T00:35:12;26.30;47.20
47813;DHT22;34221;45.296;9.516;2023-08-17T00:35:28;26.30;47.10
47813;DHT22;34221;45.296;9.516;2023-08-17T00:35:45;26.20;47.60
47813;DHT22;34221;45.296;9.516;2023-08-17T00:36:00;26.20;47.00
47813;DHT22;34221;45.296;9.516;2023-08-17T00:36:15;26.20;47.10
47813;DHT22;34221;45.296;9.516;2023-08-17T00:36:29;26.20;47.20
47813;DHT22;34221;45.296;9.516;2023-08-17T00:36:44;26.20;47.20
47813;DHT22;34221;45.296;9.516;2023-08-17T00:36:59;26.20;47.30
47813;DHT22;34221;45.296;9.516;2023-08-17T00:37:14;26.20;47.20
47813;DHT22;34221;45.296;9.516;2023-08-17T00:37:28;26.20;47.30
47813;DHT22;34221;45.296;9.516;2023-08-17T00:37:43;26.20;47.20
47813;DHT22;34221;45.296;9.516;2023-08-17T00:37:59;26.10;47.10
47813;DHT22;34221;45.296;9.516;2023-08-17T00:38:14;26.10;47.20
47813;DHT22;34221;45.296;9.516;2023-08-17T00:38:29;26.10;47.10
47813;DHT22;34221;45.296;9.516;2023-08-17T00:38:43;26.20;47.10
47813;DHT22;34221;45.296;9.516;2023-08-17T00:38:58;26.10;47.10
47813;DHT22;34221;45.296;9.516;2023-08-17T00:39:13;26.10;47.50
47813;DHT22;34221;45.296;9.516;2023-08-17T00:39:29;26.10;47.40
47813;DHT22;34221;45.296;9.516;2023-08-17T00:39:43;26.10;47.40
47813;DHT22;34221;45.296;9.516;2023-08-17T00:39:58;26.20;47.50
47813;DHT22;34221;45.296;9.516;2023-08-17T00:40:13;26.20;47.50
47813;DHT22;34221;45.296;9.516;2023-08-17T00:40:28;26.20;47.40
47813;DHT22;34221;45.296;9.516;2023-08-17T00:40:42;26.20;47.40
47813;DHT22;34221;45.296;9.516;2023-08-17T00:40:58;26.20;47.40
47813;DHT22;34221;45.296;9.516;2023-08-17T00:41:12;26.20;47.50
47813;DHT22;34221;45.296;9.516;2023-08-17T00:41:27;26.20;47.40
47813;DHT22;34221;45.296;9.516;2023-08-17T00:41:43;26.30;47.60
47813;DHT22;34221;45.296;9.516;2023-08-17T00:41:57;26.30;47.80
47813;DHT22;34221;45.296;9.516;2023-08-17T00:42:12;26.30;47.70
47813;DHT22;34221;45.296;9.516;2023-08-17T00:42:27;26.30;47.60
47813;DHT22;34221;45.296;9.516;2023-08-17T00:42:42;26.30;47.50
47813;DHT22;34221;45.296;9.516;2023-08-17T00:42:56;26.30;47.60
47813;DHT22;34221;45.296;9.516;2023-08-17T00:43:12;26.30;47.50
47813;DHT22;34221;45.296;9.516;2023-08-17T00:43:27;26.30;47.40
47813;DHT22;34221;45.296;9.516;2023-08-17T00:43:43;26.30;47.40
47813;DHT22;34221;45.296;9.516;2023-08-17T00:43:59;26.30;47.50
47813;DHT22;34221;45.296;9.516;2023-08-17T00:44:14;26.30;47.60
47813;DHT22;34221;45.296;9.516;2023-08-17T00:44:28;26.40;47.70
47813;DHT22;34221;45.296;9.516;2023-08-17T00:44:43;26.30;47.70
47813;DHT22;34221;45.296;9.516;2023-08-17T00:44:58;26.30;47.70
47813;DHT22;34221;45.296;9.516;2023-08-17T00:45:14;26.30;47.80
47813;DHT22;34221;45.296;9.516;2023-08-17T00:45:29;26.30;48.00
47813;DHT22;34221;45.296;9.516;2023-08-17T00:45:45;26.30;47.90
47813;DHT22;34221;45.296;9.516;2023-08-17T00:46:01;26.30;47.80
47813;DHT22;34221;45.296;9.516;2023-08-17T00:46:16;26.30;47.80
47813;DHT22;34221;45.296;9.516;2023-08-17T00:46:31;26.30;47.90
47813;DHT22;34221;45.296;9.516;2023-08-17T00:46:46;26.30;47.90
47813;DHT22;34221;45.296;9.516;2023-08-17T00:47:01;26.30;47.80
47813;DHT22;34221;45.296;9.516;2023-08-17T00:47:16;26.30;47.80
47813;DHT22;34221;45.296;9.516;2023-08-17T00:47:31;26.20;47.80
47813;DHT22;34221;45.296;9.516;2023-08-17T00:47:46;26.20;47.80
47813;DHT22;34221;45.296;9.516;2023-08-17T00:48:01;26.20;47.80
47813;DHT22;34221;45.296;9.516;2023-08-17T00:48:16;26.20;47.80
47813;DHT22;34221;45.296;9.516;2023-08-17T00:48:31;26.20;47.80
47813;DHT22;34221;45.296;9.516;2023-08-17T00:48:47;26.20;47.90
47813;DHT22;34221;45.296;9.516;2023-08-17T00:49:02;26.20;47.90
47813;DHT22;34221;45.296;9.516;2023-08-17T00:49:18;26.20;47.90
47813;DHT22;34221;45.296;9.516;2023-08-17T00:49:34;26.20;47.80
47813;DHT22;34221;45.296;9.516;2023-08-17T00:49:49;26.20;48.00
47813;DHT22;34221;45.296;9.516;2023-08-17T00:50:04;26.20;47.90
47813;DHT22;34221;45.296;9.516;2023-08-17T00:50:19;26.20;47.80
47813;DHT22;34221;45.296;9.516;2023-08-17T00:50:35;26.20;47.80
47813;DHT22;34221;45.296;9.516;2023-08-17T00:50:52;26.30;47.90
47813;DHT22;34221;45.296;9.516;2023-08-17T00:51:08;26.30;47.90
47813;DHT22;34221;45.296;9.516;2023-08-17T00:51:23;26.30;47.90
47813;DHT22;34221;45.296;9.516;2023-08-17T00:51:39;26.20;47.70
47813;DHT22;34221;45.296;9.516;2023-08-17T00:51:54;26.30;47.60
47813;DHT22;34221;45.296;9.516;2023-08-17T00:52:08;26.30;47.90
47813;DHT22;34221;45.296;9.516;2023-08-17T00:52:23;26.30;47.60
47813;DHT22;34221;45.296;9.516;2023-08-17T00:52:38;26.30;47.60
47813;DHT22;34221;45.296;9.516;2023-08-17T00:52:54;26.30;47.40
47813;DHT22;34221;45.296;9.516;2023-08-17T00:53:09;26.30;47.40
47813;DHT22;34221;45.296;9.516;2023-08-17T00:53:29;26.30;47.40
47813;DHT22;34221;45.296;9.516;2023-08-17T00:53:47;26.30;47.40
47813;DHT22;34221;45.296;9.516;2023-08-17T00:54:02;26.30;47.30
47813;DHT22;34221;45.296;9.516;2023-08-17T00:54:25;26.30;47.30
47813;DHT22;34221;45.296;9.516;2023-08-17T00:55:15;26.40;47.20
47813;DHT22;34221;45.296;9.516;2023-08-17T00:55:29;26.40;47.20
47813;DHT22;34221;45.296;9.516;2023-08-17T00:55:44;26.40;47.10
47813;DHT22;34221;45.296;9.516;2023-08-17T00:56:01;26.40;47.10
47813;DHT22;34221;45.296;9.516;2023-08-17T00:56:17;26.40;47.10
47813;DHT22;34221;45.296;9.516;2023-08-17T00:56:32;26.40;47.00
47813;DHT22;34221;45.296;9.516;2023-08-17T00:56:46;26.40;47.60
47813;DHT22;34221;45.296;9.516;2023-08-17T00:57:01;26.40;46.90
47813;DHT22;34221;45.296;9.516;2023-08-17T00:57:21;26.40;46.90
47813;DHT22;34221;45.296;9.516;2023-08-17T00:57:37;26.40;47.10
47813;DHT22;34221;45.296;9.516;2023-08-17T00:57:53;26.50;47.00
47813;DHT22;34221;45.296;9.516;2023-08-17T00:58:08;26.50;47.00
47813;DHT22;34221;45.296;9.516;2023-08-17T00:58:23;26.50;47.10
47813;DHT22;34221;45.296;9.516;2023-08-17T00:58:38;26.50;47.10
47813;DHT22;34221;45.296;9.516;2023-08-17T00:58:56;26.50;47.10
47813;DHT22;34221;45.296;9.516;2023-08-17T00:59:11;26.50;47.10
47813;DHT22;34221;45.296;9.516;2023-08-17T00:59:26;26.50;47.10
47813;DHT22;34221;45.296;9.516;2023-08-17T00:59:41;26.50;47.00
47813;DHT22;34221;45.296;9.516;2023-08-17T00:59:56;26.50;47.00
47813;DHT22;34221;45.296;9.516;2023-08-17T01:00:13;26.40;46.90
47813;DHT22;34221;45.296;9.516;2023-08-17T01:00:27;26.50;47.10
47813;DHT22;34221;45.296;9.516;2023-08-17T01:00:42;26.40;47.10
47813;DHT22;34221;45.296;9.516;2023-08-17T01:00:58;26.40;47.10
47813;DHT22;34221;45.296;9.516;2023-08-17T01:01:13;26.40;47.10
47813;DHT22;34221;45.296;9.516;2023-08-17T01:01:28;26.40;47.20
47813;DHT22;34221;45.296;9.516;2023-08-17T01:01:43;26.40;47.20
47813;DHT22;34221;45.296;9.516;2023-08-17T01:01:58;26.40;47.30
47813;DHT22;34221;45.296;9.516;2023-08-17T01:02:12;26.40;47.30
47813;DHT22;34221;45.296;9.516;2023-08-17T01:02:27;26.40;47.20
47813;DHT22;34221;45.296;9.516;2023-08-17T01:02:42;26.30;47.00
47813;DHT22;34221;45.296;9.516;2023-08-17T01:02:58;26.30;47.20
47813;DHT22;34221;45.296;9.516;2023-08-17T01:03:12;26.40;47.30
47813;DHT22;34221;45.296;9.516;2023-08-17T01:03:28;26.30;47.30
47813;DHT22;34221;45.296;9.516;2023-08-17T01:03:44;26.30;47.40
47813;DHT22;34221;45.296;9.516;2023-08-17T01:03:59;26.30;47.20
47813;DHT22;34221;45.296;9.516;2023-08-17T01:04:14;26.30;47.10
47813;DHT22;34221;45.296;9.516;2023-08-17T01:04:29;26.30;47.10
47813;DHT22;34221;45.296;9.516;2023-08-17T01:04:43;26.40;47.20
47813;DHT22;34221;45.296;9.516;2023-08-17T01:04:58;26.40;47.20
47813;DHT22;34221;45.296;9.516;2023-08-17T01:05:14;26.40;47.50
47813;DHT22;34221;45.296;9.516;2023-08-17T01:05:29;26.40;47.20
47813;DHT22;34221;45.296;9.516;2023-08-17T01:05:47;26.40;47.10
47813;DHT22;34221;45.296;9.516;2023-08-17T01:06:02;26.40;47.00
47813;DHT22;34221;45.296;9.516;2023-08-17T01:06:18;26.40;47.10
47813;DHT22;34221;45.296;9.516;2023-08-17T01:06:33;26.40;47.10
47813;DHT22;34221;45.296;9.516;2023-08-17T01:06:48;26.40;47.10
47813;DHT22;34221;45.296;9.516;2023-08-17T01:07:02;26.40;47.00
47813;DHT22;34221;45.296;9.516;2023-08-17T01:07:17;26.40;47.00
47813;DHT22;34221;45.296;9.516;2023-08-17T01:07:32;26.40;46.90
47813;DHT22;34221;45.296;9.516;2023-08-17T01:07:48;26.40;47.00
47813;DHT22;34221;45.296;9.516;2023-08-17T01:08:04;26.40;46.90
47813;DHT22;34221;45.296;9.516;2023-08-17T01:08:18;26.40;46.80
47813;DHT22;34221;45.296;9.516;2023-08-17T01:08:33;26.40;46.80
47813;DHT22;34221;45.296;9.516;2023-08-17T01:08:48;26.40;47.10
47813;DHT22;34221;45.296;9.516;2023-08-17T01:09:05;26.40;46.90
47813;DHT22;34221;45.296;9.516;2023-08-17T01:09:20;26.40;46.90
47813;DHT22;34221;45.296;9.516;2023-08-17T01:09:35;26.40;47.00
47813;DHT22;34221;45.296;9.516;2023-08-17T01:09:50;26.50;46.90
47813;DHT22;34221;45.296;9.516;2023-08-17T01:10:06;26.40;46.80
47813;DHT22;34221;45.296;9.516;2023-08-17T01:10:22;26.40;46.70
47813;DHT22;34221;45.296;9.516;2023-08-17T01:10:52;26.40;46.80
47813;DHT22;34221;45.296;9.516;2023-08-17T01:11:30;26.40;46.80
47813;DHT22;34221;45.296;9.516;2023-08-17T01:13:15;26.40;46.70
47813;DHT22;34221;45.296;9.516;2023-08-17T01:13:18;26.40;46.80
47813;DHT22;34221;45.296;9.516;2023-08-17T01:13:44;26.40;46.80
47813;DHT22;34221;45.296;9.516;2023-08-17T01:14:28;26.40;46.80
47813;DHT22;34221;45.296;9.516;2023-08-17T01:15:20;26.40;46.60
47813;DHT22;34221;45.296;9.516;2023-08-17T01:15:54;26.40;46.90
47813;DHT22;34221;45.296;9.516;2023-08-17T01:16:14;26.50;46.70
47813;DHT22;34221;45.296;9.516;2023-08-17T01:16:52;26.50;46.50
47813;DHT22;34221;45.296;9.516;2023-08-17T01:17:15;26.50;46.40
47813;DHT22;34221;45.296;9.516;2023-08-17T01:18:00;26.50;46.60
47813;DHT22;34221;45.296;9.516;2023-08-17T01:18:24;26.50;46.60
47813;DHT22;34221;45.296;9.516;2023-08-17T01:18:41;26.60;46.40
47813;DHT22;34221;45.296;9.516;2023-08-17T01:18:58;26.60;46.40
47813;DHT22;34221;45.296;9.516;2023-08-17T01:19:24;26.60;46.40
47813;DHT22;34221;45.296;9.516;2023-08-17T01:19:58;26.60;46.30
47813;DHT22;34221;45.296;9.516;2023-08-17T01:20:15;26.60;46.20
47813;DHT22;34221;45.296;9.516;2023-08-17T01:20:31;26.60;46.20
47813;DHT22;34221;45.296;9.516;2023-08-17T01:20:47;26.60;46.20
47813;DHT22;34221;45.296;9.516;2023-08-17T01:21:06;26.60;46.30
47813;DHT22;34221;45.296;9.516;2023-08-17T01:21:22;26.60;46.20
47813;DHT22;34221;45.296;9.516;2023-08-17T01:21:42;26.60;46.20
47813;DHT22;34221;45.296;9.516;2023-08-17T01:22:05;26.60;46.10
47813;DHT22;34221;45.296;9.516;2023-08-17T01:22:21;26.60;46.20
47813;DHT22;34221;45.296;9.516;2023-08-17T01:22:41;26.60;46.20
47813;DHT22;34221;45.296;9.516;2023-08-17T01:23:05;26.60;46.00
47813;DHT22;34221;45.296;9.516;2023-08-17T01:23:20;26.70;46.00
47813;DHT22;34221;45.296;9.516;2023-08-17T01:23:35;26.70;46.00
47813;DHT22;34221;45.296;9.516;2023-08-17T01:23:50;26.60;45.80
47813;DHT22;34221;45.296;9.516;2023-08-17T01:24:05;26.60;45.90
47813;DHT22;34221;45.296;9.516;2023-08-17T01:24:21;26.60;45.80
47813;DHT22;34221;45.296;9.516;2023-08-17T01:24:36;26.70;45.90
47813;DHT22;34221;45.296;9.516;2023-08-17T01:24:50;26.70;45.90
47813;DHT22;34221;45.296;9.516;2023-08-17T01:25:11;26.70;45.90
47813;DHT22;34221;45.296;9.516;2023-08-17T01:25:26;26.70;45.70
47813;DHT22;34221;45.296;9.516;2023-08-17T01:25:41;26.70;45.60
47813;DHT22;34221;45.296;9.516;2023-08-17T01:25:56;26.70;45.70
47813;DHT22;34221;45.296;9.516;2023-08-17T01:26:13;26.70;45.90
47813;DHT22;34221;45.296;9.516;2023-08-17T01:26:30;26.70;45.70
47813;DHT22;34221;45.296;9.516;2023-08-17T01:26:45;26.70;45.70
47813;DHT22;34221;45.296;9.516;2023-08-17T01:27:00;26.70;45.70
47813;DHT22;34221;45.296;9.516;2023-08-17T01:27:15;26.70;45.60
47813;DHT22;34221;45.296;9.516;2023-08-17T01:27:38;26.70;45.50
47813;DHT22;34221;45.296;9.516;2023-08-17T01:27:53;26.70;45.60
47813;DHT22;34221;45.296;9.516;2023-08-17T01:28:08;26.70;45.60
47813;DHT22;34221;45.296;9.516;2023-08-17T01:28:23;26.70;45.50
47813;DHT22;34221;45.296;9.516;2023-08-17T01:28:37;26.70;45.60
47813;DHT22;34221;45.296;9.516;2023-08-17T01:28:52;26.80;45.60
47813;DHT22;34221;45.296;9.516;2023-08-17T01:29:07;26.70;45.30
47813;DHT22;34221;45.296;9.516;2023-08-17T01:29:23;26.70;45.40
47813;DHT22;34221;45.296;9.516;2023-08-17T01:29:38;26.70;45.30
47813;DHT22;34221;45.296;9.516;2023-08-17T01:29:53;26.70;45.30
47813;DHT22;34221;45.296;9.516;2023-08-17T01:30:10;26.70;45.40
47813;DHT22;34221;45.296;9.516;2023-08-17T01:30:25;26.80;45.30
47813;DHT22;34221;45.296;9.516;2023-08-17T01:30:44;26.80;45.50
47813;DHT22;34221;45.296;9.516;2023-08-17T01:31:12;26.80;45.40
47813;DHT22;34221;45.296;9.516;2023-08-17T01:31:34;26.80;45.30
47813;DHT22;34221;45.296;9.516;2023-08-17T01:32:53;26.80;45.40
47813;DHT22;34221;45.296;9.516;2023-08-17T01:33:11;26.80;45.40
47813;DHT22;34221;45.296;9.516;2023-08-17T01:33:33;26.80;45.50
47813;DHT22;34221;45.296;9.516;2023-08-17T01:34:00;26.80;45.40
47813;DHT22;34221;45.296;9.516;2023-08-17T01:34:20;26.90;45.50
47813;DHT22;34221;45.296;9.516;2023-08-17T01:34:40;26.80;45.20
47813;DHT22;34221;45.296;9.516;2023-08-17T01:35:12;26.80;45.30
47813;DHT22;34221;45.296;9.516;2023-08-17T01:35:40;26.90;44.80
47813;DHT22;34221;45.296;9.516;2023-08-17T01:36:42;26.90;45.00
47813;DHT22;34221;45.296;9.516;2023-08-17T01:36:59;26.90;45.10
47813;DHT22;34221;45.296;9.516;2023-08-17T01:37:18;26.90;45.00
47813;DHT22;34221;45.296;9.516;2023-08-17T01:37:38;26.90;45.00
47813;DHT22;34221;45.296;9.516;2023-08-17T01:37:58;26.90;45.20
47813;DHT22;34221;45.296;9.516;2023-08-17T01:38:17;26.90;44.90
47813;DHT22;34221;45.296;9.516;2023-08-17T01:38:33;26.90;45.00
47813;DHT22;34221;45.296;9.516;2023-08-17T01:38:51;26.90;45.00
47813;DHT22;34221;45.296;9.516;2023-08-17T01:39:07;26.90;44.90
47813;DHT22;34221;45.296;9.516;2023-08-17T01:39:27;26.90;44.80
47813;DHT22;34221;45.296;9.516;2023-08-17T01:39:50;26.90;44.90
47813;DHT22;34221;45.296;9.516;2023-08-17T01:40:07;26.90;44.90
47813;DHT22;34221;45.296;9.516;2023-08-17T01:40:25;26.90;44.80
47813;DHT22;34221;45.296;9.516;2023-08-17T01:40:41;27.00;44.90
47813;DHT22;34221;45.296;9.516;2023-08-17T01:40:57;27.00;44.90
47813;DHT22;34221;45.296;9.516;2023-08-17T01:41:13;26.90;44.80
47813;DHT22;34221;45.296;9.516;2023-08-17T01:41:32;27.00;44.90
47813;DHT22;34221;45.296;9.516;2023-08-17T01:41:47;27.00;44.70
47813;DHT22;34221;45.296;9.516;2023-08-17T01:42:02;27.00;44.70
47813;DHT22;34221;45.296;9.516;2023-08-17T01:42:18;27.00;44.70
47813;DHT22;34221;45.296;9.516;2023-08-17T01:42:34;27.00;44.80
47813;DHT22;34221;45.296;9.516;2023-08-17T01:42:50;27.00;44.80
47813;DHT22;34221;45.296;9.516;2023-08-17T01:43:06;27.00;45.40
47813;DHT22;34221;45.296;9.516;2023-08-17T01:43:22;27.00;44.70
47813;DHT22;34221;45.296;9.516;2023-08-17T01:43:37;27.00;44.80
47813;DHT22;34221;45.296;9.516;2023-08-17T01:43:54;27.00;44.90
47813;DHT22;34221;45.296;9.516;2023-08-17T01:44:10;27.00;45.00
47813;DHT22;34221;45.296;9.516;2023-08-17T01:44:25;27.00;44.90
47813;DHT22;34221;45.296;9.516;2023-08-17T01:44:40;27.00;44.90
47813;DHT22;34221;45.296;9.516;2023-08-17T01:44:55;27.00;44.90
47813;DHT22;34221;45.296;9.516;2023-08-17T01:45:11;27.00;45.00
47813;DHT22;34221;45.296;9.516;2023-08-17T01:45:26;27.10;45.00
47813;DHT22;34221;45.296;9.516;2023-08-17T01:45:41;27.00;45.00
47813;DHT22;34221;45.296;9.516;2023-08-17T01:45:56;27.10;45.10
47813;DHT22;34221;45.296;9.516;2023-08-17T01:46:13;27.10;45.10
47813;DHT22;34221;45.296;9.516;2023-08-17T01:46:33;27.10;45.10
47813;DHT22;34221;45.296;9.516;2023-08-17T01:46:48;27.10;45.10
47813;DHT22;34221;45.296;9.516;2023-08-17T01:47:03;27.00;45.10
47813;DHT22;34221;45.296;9.516;2023-08-17T01:47:22;27.00;45.00
47813;DHT22;34221;45.296;9.516;2023-08-17T01:47:37;27.00;45.00